createdAt,value
2023-02-21T00:00:34.538Z,17.00
2023-02-21T00:03:39.527Z,16.02
2023-02-21T00:06:28.965Z,18.50
2023-02-21T00:09:16.548Z,16.17
2023-02-21T00:12:02.358Z,14.73
2023-02-21T00:14:55.065Z,16.67
2023-02-21T00:17:41.025Z,16.45
2023-02-21T00:20:27.917Z,17.08
2023-02-21T00:23:13.147Z,15.52
2023-02-21T00:26:00.312Z,20.92
2023-02-21T00:28:46.265Z,24.13
2023-02-21T00:31:32.320Z,16.42
2023-02-21T00:34:17.996Z,15.05
2023-02-21T00:37:03.959Z,17.70
2023-02-21T00:39:49.345Z,15.88
2023-02-21T00:42:36.485Z,16.23
2023-02-21T00:45:22.010Z,14.00
2023-02-21T00:48:08.042Z,15.77
2023-02-21T00:50:53.295Z,15.23
2023-02-21T00:53:42.355Z,15.20
2023-02-21T00:56:27.711Z,12.30
2023-02-21T00:59:14.638Z,17.40
2023-02-21T01:02:00.690Z,14.70
2023-02-21T01:04:46.530Z,15.77
2023-02-21T01:07:32.332Z,17.10
2023-02-21T01:10:18.459Z,17.23
2023-02-21T01:13:04.080Z,16.63
2023-02-21T01:15:50.913Z,16.35
2023-02-21T01:18:36.901Z,15.60
2023-02-21T01:21:22.821Z,17.40
2023-02-21T01:24:08.632Z,15.93
2023-02-21T01:26:54.576Z,19.60
2023-02-21T01:29:40.105Z,14.57
2023-02-21T01:32:27.352Z,14.63
2023-02-21T01:35:12.875Z,14.18
2023-02-21T01:37:58.761Z,16.77
2023-02-21T01:40:44.790Z,16.10
2023-02-21T01:43:34.821Z,15.02
2023-02-21T01:46:20.268Z,14.73
2023-02-21T01:49:09.811Z,16.77
2023-02-21T01:52:00.182Z,14.57
2023-02-21T01:54:52.893Z,14.20
2023-02-21T01:57:41.926Z,15.98
2023-02-21T02:00:30.356Z,17.08
2023-02-21T02:03:18.083Z,13.40
2023-02-21T02:06:07.185Z,15.52
2023-02-21T02:08:54.071Z,17.77
2023-02-21T02:12:01.494Z,17.08
2023-02-21T02:14:49.097Z,16.98
2023-02-21T02:17:27.591Z,21.27
2023-02-21T02:20:26.407Z,22.20
2023-02-21T02:26:06.634Z,15.38
2023-02-21T02:28:52.003Z,17.05
2023-02-21T02:31:40.875Z,15.13
2023-02-21T02:34:44.536Z,14.77
2023-02-21T02:37:21.439Z,16.58
2023-02-21T02:39:56.389Z,16.90
2023-02-21T02:42:37.862Z,14.05
2023-02-21T02:45:11.871Z,14.13
2023-02-21T02:47:41.259Z,16.60
2023-02-21T02:50:12.419Z,14.70
2023-02-21T02:52:50.521Z,15.02
2023-02-21T02:55:30.647Z,19.00
2023-02-21T02:57:58.594Z,15.38
2023-02-21T03:00:26.301Z,15.60
2023-02-21T03:03:14.903Z,15.63
2023-02-21T03:05:58.634Z,17.48
2023-02-21T03:08:31.840Z,17.02
2023-02-21T03:11:03.965Z,17.52
2023-02-21T03:13:38.064Z,15.45
2023-02-21T03:16:12.949Z,16.85
2023-02-21T03:18:44.903Z,20.08
2023-02-21T03:21:18.823Z,15.15
2023-02-21T03:23:50.149Z,14.77
2023-02-21T03:26:20.958Z,18.15
2023-02-21T03:28:50.168Z,20.35
2023-02-21T03:31:23.348Z,16.88
2023-02-21T03:33:50.325Z,18.77
2023-02-21T03:36:18.989Z,18.73
2023-02-21T03:38:46.127Z,17.27
2023-02-21T03:41:15.867Z,18.95
2023-02-21T03:43:43.060Z,17.50
2023-02-21T03:46:10.516Z,19.95
2023-02-21T03:48:37.480Z,15.43
2023-02-21T03:51:05.048Z,22.52
2023-02-21T03:53:33.476Z,18.38
2023-02-21T03:56:00.685Z,19.27
2023-02-21T03:58:28.676Z,16.77
2023-02-21T04:00:56.019Z,23.83
2023-02-21T04:03:23.171Z,21.15
2023-02-21T04:05:50.670Z,20.40
2023-02-21T04:08:17.859Z,16.60
2023-02-21T04:10:52.198Z,18.20
2023-02-21T04:13:20.173Z,21.50
2023-02-21T04:15:47.691Z,18.73
2023-02-21T04:18:14.975Z,23.50
2023-02-21T04:20:42.181Z,17.65
2023-02-21T04:23:09.201Z,23.13
2023-02-21T04:25:36.479Z,17.85
2023-02-21T04:28:05.356Z,17.33
2023-02-21T04:32:59.414Z,21.55
2023-02-21T04:35:26.768Z,16.80
2023-02-21T04:37:53.823Z,16.05
2023-02-21T04:40:21.234Z,19.02
2023-02-21T04:42:48.203Z,20.60
2023-02-21T04:45:17.079Z,15.93
2023-02-21T04:47:44.172Z,18.55
2023-02-21T04:50:12.322Z,19.13
2023-02-21T04:52:41.041Z,22.88
2023-02-21T04:55:08.860Z,26.67
2023-02-21T04:57:35.836Z,15.13
2023-02-21T05:00:07.359Z,16.70
2023-02-21T05:02:35.694Z,17.33
2023-02-21T05:05:06.006Z,19.35
2023-02-21T05:07:33.324Z,20.40
2023-02-21T05:10:00.641Z,17.25
2023-02-21T05:12:27.607Z,21.77
2023-02-21T05:14:55.066Z,23.13
2023-02-21T05:17:22.112Z,20.50
2023-02-21T05:19:51.893Z,16.13
2023-02-21T05:22:20.464Z,16.35
2023-02-21T05:24:49.125Z,21.23
2023-02-21T05:27:16.636Z,21.00
2023-02-21T05:29:46.767Z,17.35
2023-02-21T05:32:13.891Z,18.17
2023-02-21T05:34:44.532Z,15.45
2023-02-21T05:37:13.388Z,19.88
2023-02-21T05:42:07.896Z,16.73
2023-02-21T05:44:35.968Z,18.13
2023-02-21T05:47:03.200Z,19.98
2023-02-21T05:49:30.478Z,19.75
2023-02-21T05:51:57.461Z,20.38
2023-02-21T05:54:25.939Z,18.92
2023-02-21T05:56:53.993Z,18.90
2023-02-21T05:59:22.182Z,18.10
2023-02-21T06:01:49.989Z,18.15
2023-02-21T06:04:17.787Z,15.37
2023-02-21T06:06:45.098Z,16.73
2023-02-21T06:09:13.058Z,14.20
2023-02-21T06:11:41.498Z,14.02
2023-02-21T06:14:14.717Z,16.30
2023-02-21T06:16:41.989Z,18.90
2023-02-21T06:19:10.157Z,15.00
2023-02-21T06:21:37.244Z,17.73
2023-02-21T06:24:04.882Z,15.05
2023-02-21T06:26:31.870Z,15.20
2023-02-21T06:29:00.868Z,18.25
2023-02-21T06:31:27.866Z,18.38
2023-02-21T06:33:55.477Z,13.20
2023-02-21T06:36:24.669Z,16.65
2023-02-21T06:38:55.025Z,18.80
2023-02-21T06:41:25.286Z,17.13
2023-02-21T06:43:52.888Z,17.30
2023-02-21T06:46:23.474Z,18.63
2023-02-21T06:48:51.394Z,27.50
2023-02-21T06:51:18.967Z,19.67
2023-02-21T06:53:50.520Z,15.05
2023-02-21T06:56:17.676Z,15.55
2023-02-21T06:58:48.989Z,18.40
2023-02-21T07:01:16.492Z,15.93
2023-02-21T07:03:47.739Z,31.55
2023-02-21T07:06:14.864Z,17.92
2023-02-21T07:08:42.062Z,28.13
2023-02-21T07:11:09.364Z,40.67
2023-02-21T07:13:36.856Z,14.45
2023-02-21T07:16:05.222Z,16.25
2023-02-21T07:18:33.038Z,17.85
2023-02-21T07:21:01.444Z,14.73
2023-02-21T07:23:28.798Z,14.05
2023-02-21T07:25:55.835Z,14.75
2023-02-21T07:28:23.184Z,12.48
2023-02-21T07:30:51.896Z,16.20
2023-02-21T07:35:46.500Z,18.58
2023-02-21T07:38:21.840Z,18.52
2023-02-21T07:40:49.349Z,12.60
2023-02-21T07:43:17.202Z,14.45
2023-02-21T07:45:44.604Z,12.25
2023-02-21T07:48:14.607Z,20.08
2023-02-21T07:50:41.806Z,13.35
2023-02-21T07:53:11.238Z,14.82
2023-02-21T07:55:39.654Z,14.10
2023-02-21T07:58:07.293Z,21.50
2023-02-21T08:00:34.546Z,12.80
2023-02-21T08:03:02.141Z,14.73
2023-02-21T08:05:29.041Z,16.75
2023-02-21T08:07:56.334Z,15.57
2023-02-21T08:10:25.870Z,18.55
2023-02-21T08:12:54.659Z,13.85
2023-02-21T08:15:22.956Z,11.27
2023-02-21T08:17:50.937Z,18.60
2023-02-21T08:20:18.820Z,10.30
2023-02-21T08:22:46.392Z,12.65
2023-02-21T08:25:15.455Z,11.70
2023-02-21T08:27:43.784Z,10.30
2023-02-21T08:30:14.742Z,13.02
2023-02-21T08:32:48.339Z,13.43
2023-02-21T08:35:16.534Z,13.88
2023-02-21T08:37:45.316Z,14.43
2023-02-21T08:40:12.898Z,17.70
2023-02-21T08:42:40.720Z,11.32
2023-02-21T08:45:10.723Z,13.80
2023-02-21T08:47:39.465Z,12.15
2023-02-21T08:50:06.872Z,11.80
2023-02-21T08:52:34.254Z,10.45
2023-02-21T08:55:01.287Z,17.13
2023-02-21T08:57:28.714Z,9.85
2023-02-21T08:59:56.109Z,9.40
2023-02-21T09:02:29.005Z,8.93
2023-02-21T09:04:57.396Z,8.25
2023-02-21T09:07:24.825Z,12.45
2023-02-21T09:09:51.856Z,7.95
2023-02-21T09:12:18.985Z,11.35
2023-02-21T09:14:46.204Z,17.45
2023-02-21T09:17:14.208Z,8.25
2023-02-21T09:19:41.767Z,9.05
2023-02-21T09:24:38.695Z,11.52
2023-02-21T09:27:06.813Z,8.18
2023-02-21T09:29:46.021Z,8.27
2023-02-21T09:32:14.768Z,5.70
2023-02-21T09:34:41.841Z,8.68
2023-02-21T09:37:09.247Z,8.15
2023-02-21T09:39:39.464Z,13.27
2023-02-21T09:42:07.103Z,9.98
2023-02-21T09:44:34.918Z,12.23
2023-02-21T09:47:05.369Z,6.43
2023-02-21T09:49:35.482Z,5.68
2023-02-21T09:52:03.591Z,8.60
2023-02-21T09:54:33.726Z,8.98
2023-02-21T09:57:05.127Z,13.30
2023-02-21T09:59:32.940Z,11.20
2023-02-21T10:02:18.796Z,12.85
2023-02-21T10:05:03.957Z,9.35
2023-02-21T10:07:40.712Z,6.60
2023-02-21T10:10:14.575Z,12.05
2023-02-21T10:12:54.267Z,6.43
2023-02-21T10:15:36.495Z,10.65
2023-02-21T10:18:08.650Z,6.53
2023-02-21T10:20:39.441Z,3.75
2023-02-21T10:23:16.020Z,7.75
2023-02-21T10:25:44.744Z,11.15
2023-02-21T10:28:18.425Z,8.88
2023-02-21T10:30:47.731Z,5.88
2023-02-21T10:33:15.390Z,5.97
2023-02-21T10:35:42.854Z,9.73
2023-02-21T10:38:20.526Z,5.22
2023-02-21T10:40:52.190Z,8.43
2023-02-21T10:43:28.155Z,6.22
2023-02-21T10:46:01.399Z,6.07
2023-02-21T10:48:34.859Z,7.20
2023-02-21T10:51:08.002Z,6.28
2023-02-21T10:53:37.293Z,4.38
2023-02-21T10:56:24.568Z,4.75
2023-02-21T10:58:56.488Z,9.00
2023-02-21T11:01:37.070Z,5.85
2023-02-21T11:04:07.139Z,7.95
2023-02-21T11:06:40.004Z,6.43
2023-02-21T11:09:30.949Z,3.70
2023-02-21T11:12:03.739Z,4.15
2023-02-21T11:14:33.769Z,5.35
2023-02-21T11:17:16.150Z,5.70
2023-02-21T11:19:52.206Z,3.70
2023-02-21T11:22:22.868Z,6.85
2023-02-21T11:24:55.679Z,3.10
2023-02-21T11:27:23.513Z,4.50
2023-02-21T11:29:53.917Z,4.68
2023-02-21T11:32:26.248Z,6.20
2023-02-21T11:35:02.658Z,13.65
2023-02-21T11:37:29.983Z,12.07
2023-02-21T11:39:59.672Z,3.88
2023-02-21T11:42:29.933Z,9.25
2023-02-21T11:45:28.443Z,9.77
2023-02-21T11:48:01.369Z,11.38
2023-02-21T11:50:34.242Z,4.80
2023-02-21T11:53:06.798Z,5.70
2023-02-21T11:55:38.884Z,3.20
2023-02-21T11:58:17.829Z,4.20
2023-02-21T12:01:02.349Z,10.20
2023-02-21T12:03:52.348Z,4.18
2023-02-21T12:06:30.187Z,4.45
2023-02-21T12:09:10.841Z,3.75
2023-02-21T12:11:55.841Z,8.43
2023-02-21T12:14:52.289Z,4.93
2023-02-21T12:17:48.607Z,9.15
2023-02-21T12:20:28.270Z,9.38
2023-02-21T12:23:07.022Z,2.70
2023-02-21T12:28:18.623Z,8.05
2023-02-21T12:30:58.062Z,3.85
2023-02-21T12:33:39.097Z,2.38
2023-02-21T12:36:17.207Z,5.68
2023-02-21T12:38:55.062Z,1.70
2023-02-21T12:41:37.715Z,3.45
2023-02-21T12:44:13.500Z,4.78
2023-02-21T12:46:46.503Z,4.95
2023-02-21T12:49:21.541Z,3.13
2023-02-21T12:51:54.332Z,2.45
2023-02-21T12:54:27.067Z,1.33
2023-02-21T12:57:01.711Z,5.07
2023-02-21T12:59:37.046Z,4.65
2023-02-21T13:02:15.743Z,4.63
2023-02-21T13:04:47.146Z,4.63
2023-02-21T13:07:25.626Z,7.22
2023-02-21T13:09:59.828Z,13.02
2023-02-21T13:12:33.927Z,4.45
2023-02-21T13:15:13.384Z,2.05
2023-02-21T13:17:41.730Z,1.08
2023-02-21T13:20:17.995Z,7.78
2023-02-21T13:23:41.461Z,4.57
2023-02-21T13:26:31.287Z,11.45
2023-02-21T13:29:01.619Z,11.77
2023-02-21T13:31:41.115Z,8.57
2023-02-21T13:34:11.551Z,7.05
2023-02-21T13:36:44.361Z,11.43
2023-02-21T13:39:14.846Z,5.30
2023-02-21T13:41:45.342Z,3.72
2023-02-21T13:44:19.009Z,4.30
2023-02-21T13:47:11.799Z,11.80
2023-02-21T13:49:43.121Z,7.07
2023-02-21T13:53:02.347Z,9.68
2023-02-21T13:55:31.603Z,7.63
2023-02-21T13:58:38.462Z,6.22
2023-02-21T14:01:42.563Z,1.80
2023-02-21T14:05:02.020Z,2.30
2023-02-21T14:07:56.256Z,3.58
2023-02-21T14:10:42.282Z,3.70
2023-02-21T14:13:21.361Z,2.17
2023-02-21T14:15:57.212Z,3.53
2023-02-21T14:18:27.092Z,3.67
2023-02-21T14:20:57.979Z,4.45
2023-02-21T14:23:40.798Z,3.67
2023-02-21T14:26:40.289Z,7.40
2023-02-21T14:29:14.643Z,3.50
2023-02-21T14:31:52.598Z,4.68
2023-02-21T14:34:35.836Z,5.82
2023-02-21T14:37:11.489Z,19.25
2023-02-21T14:39:41.383Z,5.82
2023-02-21T14:42:24.408Z,7.03
2023-02-21T14:45:07.829Z,6.32
2023-02-21T14:47:51.428Z,8.23
2023-02-21T14:50:32.422Z,6.80
2023-02-21T14:53:34.912Z,7.38
2023-02-21T14:56:31.024Z,3.58
2023-02-21T14:59:26.776Z,6.18
2023-02-21T15:02:04.939Z,3.92
2023-02-21T15:04:39.506Z,5.50
2023-02-21T15:07:18.845Z,10.07
2023-02-21T15:10:03.772Z,5.10
2023-02-21T15:12:31.012Z,6.28
2023-02-21T15:14:59.705Z,4.20
2023-02-21T15:17:27.097Z,4.35
2023-02-21T15:20:02.394Z,7.05
2023-02-21T15:22:29.577Z,7.63
2023-02-21T15:25:11.314Z,5.28
2023-02-21T15:27:53.876Z,4.15
2023-02-21T15:30:25.448Z,4.53
2023-02-21T15:32:57.674Z,7.45
2023-02-21T15:35:33.643Z,3.22
2023-02-21T15:38:05.676Z,5.60
2023-02-21T15:40:33.313Z,4.05
2023-02-21T15:43:02.685Z,3.30
2023-02-21T15:45:33.991Z,7.47
2023-02-21T15:48:03.536Z,7.65
2023-02-21T15:50:34.724Z,4.47
2023-02-21T15:53:20.731Z,13.00
2023-02-21T15:55:49.326Z,8.45
2023-02-21T15:58:23.910Z,7.38
2023-02-21T16:01:07.219Z,11.32
2023-02-21T16:03:37.030Z,8.55
2023-02-21T16:06:18.648Z,4.38
2023-02-21T16:08:59.720Z,6.32
2023-02-21T16:11:40.986Z,8.25
2023-02-21T16:14:16.472Z,4.65
2023-02-21T16:16:46.261Z,4.47
2023-02-21T16:19:13.443Z,4.88
2023-02-21T16:21:40.649Z,7.13
2023-02-21T16:24:29.380Z,3.75
2023-02-21T16:27:04.488Z,7.38
2023-02-21T16:29:31.683Z,4.57
2023-02-21T16:32:00.487Z,20.00
2023-02-21T16:34:30.653Z,9.38
2023-02-21T16:37:02.367Z,19.05
2023-02-21T16:39:30.801Z,9.13
2023-02-21T16:41:58.558Z,8.00
2023-02-21T16:44:25.612Z,7.93
2023-02-21T16:46:54.312Z,6.47
2023-02-21T16:49:22.860Z,8.60
2023-02-21T16:54:18.131Z,5.80
2023-02-21T16:56:47.926Z,8.23
2023-02-21T16:59:19.221Z,5.85
2023-02-21T17:01:47.055Z,6.57
2023-02-21T17:04:18.279Z,5.55
2023-02-21T17:06:51.851Z,6.35
2023-02-21T17:09:24.996Z,6.75
2023-02-21T17:11:53.161Z,7.38
2023-02-21T17:14:21.317Z,9.50
2023-02-21T17:16:56.290Z,9.80
2023-02-21T17:19:24.857Z,7.88
2023-02-21T17:24:20.983Z,7.15
2023-02-21T17:26:48.366Z,9.43
2023-02-21T17:29:18.145Z,10.88
2023-02-21T17:31:51.580Z,34.97
2023-02-21T17:34:18.756Z,13.98
2023-02-21T17:36:48.858Z,9.20
2023-02-21T17:39:17.817Z,6.32
2023-02-21T17:41:46.359Z,8.45
2023-02-21T17:44:19.280Z,17.15
2023-02-21T17:46:48.434Z,14.15
2023-02-21T17:51:43.544Z,11.18
2023-02-21T17:54:10.596Z,6.47
2023-02-21T17:56:39.612Z,7.90
2023-02-21T17:59:06.807Z,12.55
2023-02-21T18:01:35.970Z,7.07
2023-02-21T18:04:03.424Z,11.82
2023-02-21T18:06:30.810Z,11.32
2023-02-21T18:08:57.772Z,10.55
2023-02-21T18:11:25.411Z,9.32
2023-02-21T18:13:55.638Z,14.13
2023-02-21T18:16:23.370Z,11.75
2023-02-21T18:18:50.938Z,12.30
2023-02-21T18:21:22.290Z,13.45
2023-02-21T18:23:50.981Z,12.27
2023-02-21T18:26:21.732Z,9.77
2023-02-21T18:28:49.311Z,9.50
2023-02-21T18:31:19.811Z,8.57
2023-02-21T18:33:48.782Z,8.82
2023-02-21T18:38:43.047Z,10.30
2023-02-21T18:41:11.537Z,12.82
2023-02-21T18:43:38.807Z,8.17
2023-02-21T18:46:11.612Z,14.88
2023-02-21T18:48:42.031Z,13.63
2023-02-21T18:51:10.543Z,9.07
2023-02-21T18:53:37.964Z,8.48
2023-02-21T18:56:10.437Z,10.27
2023-02-21T18:58:38.120Z,11.40
2023-02-21T19:01:06.810Z,14.75
2023-02-21T19:03:34.245Z,10.00
2023-02-21T19:06:02.828Z,11.10
2023-02-21T19:08:30.234Z,14.52
2023-02-21T19:10:57.436Z,9.10
2023-02-21T19:13:26.979Z,11.02
2023-02-21T19:15:57.231Z,8.70
2023-02-21T19:18:24.219Z,9.27
2023-02-21T19:20:56.697Z,9.95
2023-02-21T19:23:27.329Z,10.20
2023-02-21T19:25:55.405Z,6.60
2023-02-21T19:28:24.054Z,9.45
2023-02-21T19:33:18.663Z,7.05
2023-02-21T19:35:46.130Z,9.65
2023-02-21T19:38:15.923Z,6.47
2023-02-21T19:40:45.040Z,11.18
2023-02-21T19:43:16.197Z,9.18
2023-02-21T19:45:44.852Z,9.02
2023-02-21T19:48:11.825Z,9.15
2023-02-21T19:50:39.704Z,9.05
2023-02-21T19:53:09.783Z,10.15
2023-02-21T19:55:37.152Z,11.00
2023-02-21T19:58:08.504Z,8.85
2023-02-21T20:00:36.983Z,8.90
2023-02-21T20:03:05.733Z,9.05
2023-02-21T20:05:33.094Z,7.93
2023-02-21T20:08:00.124Z,8.60
2023-02-21T20:10:27.343Z,13.43
2023-02-21T20:12:56.736Z,8.85
2023-02-21T20:15:28.512Z,6.32
2023-02-21T20:17:55.782Z,6.15
2023-02-21T20:20:22.956Z,10.00
2023-02-21T20:22:49.985Z,6.90
2023-02-21T20:25:17.336Z,10.70
2023-02-21T20:27:44.316Z,8.45
2023-02-21T20:30:12.917Z,10.10
2023-02-21T20:32:41.722Z,11.38
2023-02-21T20:35:10.251Z,8.48
2023-02-21T20:37:40.027Z,7.80
2023-02-21T20:40:10.892Z,10.13
2023-02-21T20:42:38.158Z,8.60
2023-02-21T20:45:08.359Z,7.93
2023-02-21T20:47:35.323Z,8.18
2023-02-21T20:50:04.565Z,7.55
2023-02-21T20:54:58.650Z,6.95
2023-02-21T20:57:27.086Z,10.30
2023-02-21T20:59:54.223Z,8.15
2023-02-21T21:02:21.259Z,8.48
2023-02-21T21:04:48.560Z,10.18
2023-02-21T21:07:22.456Z,16.00
2023-02-21T21:09:50.342Z,7.82
2023-02-21T21:12:19.133Z,12.88
2023-02-21T21:17:20.613Z,9.32
2023-02-21T21:19:49.354Z,13.02
2023-02-21T21:22:32.767Z,8.48
2023-02-21T21:25:05.484Z,8.48
2023-02-21T21:27:40.560Z,12.77
2023-02-21T21:30:12.367Z,10.82
2023-02-21T21:32:45.564Z,9.45
2023-02-21T21:35:16.869Z,9.02
2023-02-21T21:37:46.214Z,10.98
2023-02-21T21:40:17.944Z,7.78
2023-02-21T21:42:52.054Z,15.27
2023-02-21T21:45:26.537Z,10.18
2023-02-21T21:48:02.543Z,7.88
2023-02-21T21:50:30.036Z,8.23
2023-02-21T21:53:00.305Z,7.72
2023-02-21T21:55:29.920Z,7.93
2023-02-21T21:57:59.824Z,9.88
2023-02-21T22:00:29.418Z,9.52
2023-02-21T22:03:00.371Z,9.00
2023-02-21T22:05:35.438Z,8.95
2023-02-21T22:08:09.270Z,16.02
2023-02-21T22:10:40.263Z,8.80
2023-02-21T22:13:13.603Z,10.05
2023-02-21T22:15:45.003Z,13.13
2023-02-21T22:18:18.299Z,13.30
2023-02-21T22:20:50.671Z,10.88
2023-02-21T22:23:26.308Z,9.90
2023-02-21T22:25:57.201Z,12.85
2023-02-21T22:28:25.737Z,11.00
2023-02-21T22:30:53.000Z,12.75
2023-02-21T22:33:24.184Z,9.90
2023-02-21T22:35:51.521Z,18.80
2023-02-21T22:38:24.737Z,12.20
2023-02-21T22:40:51.983Z,12.48
2023-02-21T22:43:20.045Z,13.13
2023-02-21T22:45:50.294Z,13.68
2023-02-21T22:48:20.578Z,8.85
2023-02-21T22:50:48.746Z,10.65
2023-02-21T22:53:18.947Z,12.80
2023-02-21T22:55:52.094Z,12.13
2023-02-21T22:58:20.549Z,10.75
2023-02-21T23:00:48.820Z,11.52
2023-02-21T23:03:16.671Z,11.98
2023-02-21T23:05:45.891Z,12.03
2023-02-21T23:08:15.083Z,10.63
2023-02-21T23:10:43.049Z,11.20
2023-02-21T23:13:16.899Z,12.57
2023-02-21T23:15:45.397Z,11.38
2023-02-21T23:18:21.056Z,10.27
2023-02-21T23:20:52.598Z,10.43
2023-02-21T23:23:20.766Z,15.63
2023-02-21T23:25:48.369Z,12.85
2023-02-21T23:28:17.374Z,10.73
2023-02-21T23:30:46.168Z,15.63
2023-02-21T23:33:15.926Z,13.48
2023-02-21T23:35:44.296Z,18.88
2023-02-21T23:38:15.584Z,12.10
2023-02-21T23:40:44.285Z,18.40
2023-02-21T23:43:12.053Z,17.38
2023-02-21T23:45:41.015Z,15.43
2023-02-21T23:48:10.337Z,16.17
2023-02-21T23:50:37.756Z,12.35
2023-02-21T23:53:05.976Z,13.05
2023-02-21T23:55:35.855Z,14.40
2023-02-21T23:58:08.809Z,16.70
